createdAt,value
2018-07-22T00:01:41.608Z,13.32
2018-07-22T00:04:15.314Z,13.48
2018-07-22T00:06:49.046Z,13.70
2018-07-22T00:09:23.452Z,12.70
2018-07-22T00:11:57.275Z,14.30
2018-07-22T00:14:31.187Z,12.85
2018-07-22T00:17:05.026Z,12.02
2018-07-22T00:19:38.763Z,12.57
2018-07-22T00:22:13.344Z,12.80
2018-07-22T00:24:47.200Z,13.10
2018-07-22T00:27:20.900Z,11.82
2018-07-22T00:29:54.661Z,11.65
2018-07-22T00:32:28.544Z,16.15
2018-07-22T00:35:02.344Z,12.77
2018-07-22T00:37:36.119Z,12.30
2018-07-22T00:40:10.001Z,12.80
2018-07-22T00:42:43.827Z,12.60
2018-07-22T00:45:18.483Z,12.18
2018-07-22T00:47:53.108Z,13.50
2018-07-22T00:50:27.021Z,12.20
2018-07-22T00:53:01.468Z,11.50
2018-07-22T00:55:35.279Z,11.35
2018-07-22T00:58:09.089Z,11.20
2018-07-22T01:00:43.571Z,9.93
2018-07-22T01:03:17.396Z,10.13
2018-07-22T01:05:51.116Z,11.55
2018-07-22T01:08:24.942Z,11.43
2018-07-22T01:10:58.843Z,11.48
2018-07-22T01:13:32.679Z,11.35
2018-07-22T01:16:06.438Z,12.27
2018-07-22T01:18:40.247Z,10.80
2018-07-22T01:21:14.035Z,10.25
2018-07-22T01:23:48.678Z,11.12
2018-07-22T01:26:22.484Z,10.52
2018-07-22T01:28:56.168Z,10.98
2018-07-22T01:31:29.894Z,10.82
2018-07-22T01:34:03.730Z,11.65
2018-07-22T01:36:37.502Z,11.30
2018-07-22T01:39:12.041Z,13.57
2018-07-22T01:41:45.823Z,12.77
2018-07-22T01:44:20.469Z,22.15
2018-07-22T01:46:54.375Z,10.20
2018-07-22T01:49:28.848Z,11.57
2018-07-22T01:52:03.444Z,10.32
2018-07-22T01:54:37.213Z,10.15
2018-07-22T01:57:11.029Z,9.57
2018-07-22T01:59:44.977Z,10.30
2018-07-22T02:02:18.778Z,9.85
2018-07-22T02:04:52.453Z,10.13
2018-07-22T02:07:27.077Z,10.50
2018-07-22T02:10:00.904Z,10.50
2018-07-22T02:12:34.806Z,10.27
2018-07-22T02:15:08.460Z,10.73
2018-07-22T02:17:42.317Z,10.85
2018-07-22T02:20:16.696Z,10.40
2018-07-22T02:22:50.399Z,10.52
2018-07-22T02:25:24.904Z,9.90
2018-07-22T02:27:59.362Z,12.75
2018-07-22T02:30:33.047Z,10.90
2018-07-22T02:33:06.853Z,9.77
2018-07-22T02:35:40.647Z,10.52
2018-07-22T02:38:15.196Z,10.73
2018-07-22T02:40:49.051Z,10.30
2018-07-22T02:43:22.875Z,11.02
2018-07-22T02:45:56.687Z,10.68
2018-07-22T02:48:30.573Z,10.63
2018-07-22T02:51:05.123Z,9.88
2018-07-22T02:53:38.965Z,10.35
2018-07-22T02:56:13.444Z,10.07
2018-07-22T02:58:47.165Z,11.25
2018-07-22T03:01:20.941Z,10.98
2018-07-22T03:03:54.625Z,12.23
2018-07-22T03:06:28.388Z,11.15
2018-07-22T03:09:02.101Z,12.37
2018-07-22T03:11:35.944Z,11.07
2018-07-22T03:14:10.514Z,10.82
2018-07-22T03:16:44.109Z,10.65
2018-07-22T03:19:17.883Z,11.43
2018-07-22T03:21:51.653Z,10.55
2018-07-22T03:24:25.551Z,10.50
2018-07-22T03:26:59.333Z,10.70
2018-07-22T03:29:33.988Z,11.05
2018-07-22T03:32:08.460Z,11.40
2018-07-22T03:34:43.053Z,11.25
2018-07-22T03:37:16.698Z,10.82
2018-07-22T03:39:50.596Z,12.20
2018-07-22T03:42:25.246Z,12.80
2018-07-22T03:44:59.035Z,9.60
2018-07-22T03:47:32.871Z,10.82
2018-07-22T03:50:06.691Z,11.23
2018-07-22T03:52:40.514Z,10.70
2018-07-22T03:55:14.305Z,11.32
2018-07-22T03:57:48.203Z,10.80
2018-07-22T04:00:21.930Z,9.57
2018-07-22T04:02:55.808Z,11.40
2018-07-22T04:05:30.308Z,11.07
2018-07-22T04:08:04.059Z,11.23
2018-07-22T04:10:37.868Z,12.13
2018-07-22T04:13:11.656Z,10.45
2018-07-22T04:15:45.492Z,11.25
2018-07-22T04:18:19.250Z,10.88
2018-07-22T04:20:53.049Z,11.05
2018-07-22T04:23:27.601Z,10.48
2018-07-22T04:26:01.279Z,10.10
2018-07-22T04:28:35.118Z,10.63
2018-07-22T04:31:08.948Z,12.05
2018-07-22T04:33:43.412Z,10.60
2018-07-22T04:36:17.956Z,10.88
2018-07-22T04:38:51.660Z,19.33
2018-07-22T04:41:25.375Z,10.75
2018-07-22T04:43:59.224Z,10.10
2018-07-22T04:46:32.985Z,11.23
2018-07-22T04:49:06.821Z,10.70
2018-07-22T04:51:40.588Z,19.62
2018-07-22T04:54:14.400Z,11.88
2018-07-22T04:56:49.027Z,10.65
2018-07-22T04:59:23.539Z,10.60
2018-07-22T05:01:57.188Z,10.75
2018-07-22T05:04:31.100Z,11.65
2018-07-22T05:07:04.787Z,10.23
2018-07-22T05:09:38.599Z,11.30
2018-07-22T05:12:12.515Z,11.45
2018-07-22T05:14:46.287Z,11.57
2018-07-22T05:17:20.064Z,11.30
2018-07-22T05:19:53.981Z,11.48
2018-07-22T05:22:28.376Z,11.12
2018-07-22T05:25:02.136Z,11.07
2018-07-22T05:27:35.813Z,12.35
2018-07-22T05:30:09.555Z,11.25
2018-07-22T05:32:43.275Z,10.30
2018-07-22T05:35:17.085Z,11.25
2018-07-22T05:37:50.819Z,11.38
2018-07-22T05:40:24.559Z,10.27
2018-07-22T05:42:58.188Z,10.70
2018-07-22T05:45:32.682Z,12.40
2018-07-22T05:48:07.192Z,12.10
2018-07-22T05:50:40.941Z,13.85
2018-07-22T05:53:14.740Z,11.98
2018-07-22T05:55:49.182Z,13.23
2018-07-22T05:58:23.019Z,10.68
2018-07-22T06:00:57.660Z,12.10
2018-07-22T06:03:31.411Z,12.40
2018-07-22T06:06:05.026Z,10.50
2018-07-22T06:08:38.896Z,11.12
2018-07-22T06:11:13.512Z,10.38
2018-07-22T06:13:47.310Z,10.10
2018-07-22T06:16:21.921Z,10.57
2018-07-22T06:18:55.743Z,9.65
2018-07-22T06:21:30.340Z,10.80
2018-07-22T06:24:04.179Z,10.25
2018-07-22T06:26:38.680Z,12.73
2018-07-22T06:29:12.509Z,11.60
2018-07-22T06:31:46.203Z,11.12
2018-07-22T06:34:19.962Z,11.52
2018-07-22T06:36:53.639Z,12.10
2018-07-22T06:39:27.368Z,10.93
2018-07-22T06:42:01.965Z,11.13
2018-07-22T06:44:36.559Z,12.00
2018-07-22T06:47:10.393Z,11.00
2018-07-22T06:49:44.858Z,11.27
2018-07-22T06:52:18.576Z,11.90
2018-07-22T06:54:52.260Z,11.60
2018-07-22T06:57:26.003Z,10.83
2018-07-22T06:59:59.882Z,10.80
2018-07-22T07:02:33.559Z,10.43
2018-07-22T07:05:07.539Z,11.60
2018-07-22T07:07:41.288Z,12.47
2018-07-22T07:10:15.025Z,12.23
2018-07-22T07:12:48.861Z,12.97
2018-07-22T07:15:22.524Z,13.27
2018-07-22T07:17:56.331Z,13.03
2018-07-22T07:20:30.156Z,13.03
2018-07-22T07:23:04.666Z,12.53
2018-07-22T07:25:38.325Z,13.27
2018-07-22T07:28:12.119Z,22.30
2018-07-22T07:30:45.987Z,13.00
2018-07-22T07:33:19.793Z,13.40
2018-07-22T07:35:54.460Z,11.70
2018-07-22T07:38:28.154Z,13.50
2018-07-22T07:41:01.825Z,13.97
2018-07-22T07:43:35.674Z,13.00
2018-07-22T07:46:09.413Z,12.83
2018-07-22T07:48:43.178Z,13.37
2018-07-22T07:51:16.888Z,14.60
2018-07-22T07:53:50.697Z,13.90
2018-07-22T07:56:24.540Z,13.37
2018-07-22T07:58:58.365Z,19.80
2018-07-22T08:01:32.323Z,15.67
2018-07-22T08:04:06.054Z,16.67
2018-07-22T08:06:39.909Z,14.50
2018-07-22T08:09:13.772Z,15.00
2018-07-22T08:11:48.241Z,14.50
2018-07-22T08:14:22.752Z,15.13
2018-07-22T08:16:56.580Z,13.47
2018-07-22T08:19:31.156Z,14.30
2018-07-22T08:22:05.046Z,14.73
2018-07-22T08:24:38.862Z,16.20
2018-07-22T08:27:12.625Z,15.67
2018-07-22T08:29:46.355Z,13.60
2018-07-22T08:32:20.223Z,15.53
2018-07-22T08:34:54.004Z,13.37
2018-07-22T08:37:27.827Z,15.30
2018-07-22T08:40:01.557Z,15.67
2018-07-22T08:42:35.366Z,15.77
2018-07-22T08:45:09.056Z,16.37
2018-07-22T08:47:43.569Z,15.80
2018-07-22T08:50:18.066Z,16.43
2018-07-22T08:52:51.740Z,15.90
2018-07-22T08:55:25.541Z,14.50
2018-07-22T08:57:59.365Z,15.87
2018-07-22T09:00:33.117Z,14.90
2018-07-22T09:03:06.940Z,14.50
2018-07-22T09:05:40.648Z,14.03
2018-07-22T09:08:14.464Z,13.27
2018-07-22T09:10:48.216Z,13.23
2018-07-22T09:13:22.023Z,11.90
2018-07-22T09:15:56.763Z,12.20
2018-07-22T09:18:30.358Z,13.60
2018-07-22T09:21:04.298Z,12.10
2018-07-22T09:23:38.855Z,12.43
2018-07-22T09:26:12.687Z,11.60
2018-07-22T09:28:47.235Z,13.13
2018-07-22T09:31:21.019Z,12.30
2018-07-22T09:33:54.864Z,13.07
2018-07-22T09:36:29.424Z,12.27
2018-07-22T09:39:04.025Z,13.60
2018-07-22T09:41:37.884Z,13.43
2018-07-22T09:44:11.679Z,13.20
2018-07-22T09:46:46.277Z,11.87
2018-07-22T09:49:20.813Z,11.30
2018-07-22T09:51:54.694Z,13.10
2018-07-22T09:54:28.412Z,11.50
2018-07-22T09:57:03.070Z,12.30
2018-07-22T09:59:38.467Z,12.03
2018-07-22T10:02:12.121Z,11.70
2018-07-22T10:04:45.956Z,12.30
2018-07-22T10:07:20.445Z,12.63
2018-07-22T10:09:54.388Z,13.00
2018-07-22T10:12:28.976Z,11.50
2018-07-22T10:15:02.787Z,11.57
2018-07-22T10:17:36.679Z,10.90
2018-07-22T10:20:10.347Z,11.47
2018-07-22T10:22:44.219Z,11.53
2018-07-22T10:25:17.991Z,11.00
2018-07-22T10:27:51.769Z,12.27
2018-07-22T10:30:25.565Z,11.57
2018-07-22T10:33:00.020Z,12.03
2018-07-22T10:35:34.476Z,12.80
2018-07-22T10:38:08.108Z,12.27
2018-07-22T10:40:41.974Z,12.57
2018-07-22T10:43:15.743Z,11.60
2018-07-22T10:45:49.525Z,19.93
2018-07-22T10:48:23.437Z,11.53
2018-07-22T10:50:57.277Z,11.57
2018-07-22T10:53:30.915Z,11.97
2018-07-22T10:56:04.743Z,12.00
2018-07-22T10:58:38.847Z,11.90
2018-07-22T11:01:12.641Z,12.77
2018-07-22T11:03:46.450Z,11.40
2018-07-22T11:06:20.250Z,11.83
2018-07-22T11:08:54.022Z,12.37
2018-07-22T11:11:28.670Z,12.77
2018-07-22T11:14:02.527Z,10.97
2018-07-22T11:16:36.282Z,11.50
2018-07-22T11:19:10.105Z,11.67
2018-07-22T11:21:43.928Z,12.13
2018-07-22T11:24:17.834Z,12.80
2018-07-22T11:26:51.644Z,12.07
2018-07-22T11:29:25.415Z,13.10
2018-07-22T11:32:00.085Z,13.00
2018-07-22T11:34:33.854Z,12.00
2018-07-22T11:37:08.464Z,14.23
2018-07-22T11:39:42.173Z,12.60
2018-07-22T11:42:15.900Z,13.17
2018-07-22T11:44:49.688Z,13.33
2018-07-22T11:47:23.480Z,19.87
2018-07-22T11:49:57.324Z,17.40
2018-07-22T11:52:31.105Z,22.03
2018-07-22T11:55:05.638Z,12.97
2018-07-22T11:57:40.104Z,14.27
2018-07-22T12:00:14.740Z,22.87
2018-07-22T12:02:48.576Z,14.07
2018-07-22T12:05:22.476Z,14.67
2018-07-22T12:07:56.208Z,14.13
2018-07-22T12:10:30.008Z,14.70
2018-07-22T12:13:03.844Z,13.83
2018-07-22T12:15:38.531Z,27.90
2018-07-22T12:18:12.339Z,13.90
2018-07-22T12:20:46.163Z,14.23
2018-07-22T12:23:19.781Z,16.83
2018-07-22T12:25:54.388Z,20.30
2018-07-22T12:28:28.002Z,14.00
2018-07-22T12:31:01.803Z,14.43
2018-07-22T12:33:35.570Z,15.50
2018-07-22T12:36:09.429Z,14.93
2018-07-22T12:38:43.171Z,13.80
2018-07-22T12:41:16.997Z,13.57
2018-07-22T12:43:50.646Z,13.40
2018-07-22T12:46:24.425Z,14.37
2018-07-22T12:48:58.996Z,13.60
2018-07-22T12:51:32.725Z,13.73
2018-07-22T12:54:07.232Z,14.20
2018-07-22T12:56:41.851Z,15.53
2018-07-22T12:59:16.321Z,14.50
2018-07-22T13:01:50.095Z,15.23
2018-07-22T13:04:25.694Z,15.53
2018-07-22T13:06:59.413Z,17.67
2018-07-22T13:09:33.210Z,17.17
2018-07-22T13:12:07.009Z,16.93
2018-07-22T13:14:40.812Z,16.70
2018-07-22T13:17:15.392Z,16.67
2018-07-22T13:19:49.955Z,15.40
2018-07-22T13:22:23.625Z,17.60
2018-07-22T13:24:57.548Z,18.53
2018-07-22T13:27:32.194Z,19.03
2018-07-22T13:30:05.916Z,18.00
2018-07-22T13:32:39.680Z,19.70
2018-07-22T13:35:13.439Z,21.53
2018-07-22T13:37:47.332Z,21.47
2018-07-22T13:40:21.072Z,22.07
2018-07-22T13:42:55.627Z,22.17
2018-07-22T13:45:29.371Z,20.00
2018-07-22T13:48:03.936Z,37.17
2018-07-22T13:50:37.730Z,23.70
2018-07-22T13:53:12.388Z,18.20
2018-07-22T13:55:46.164Z,18.58
2018-07-22T13:58:20.085Z,15.32
2018-07-22T14:00:53.874Z,12.63
2018-07-22T14:03:27.553Z,11.25
2018-07-22T14:06:01.372Z,10.93
2018-07-22T14:08:35.053Z,10.20
2018-07-22T14:11:08.808Z,10.27
2018-07-22T14:13:42.600Z,9.80
2018-07-22T14:16:17.167Z,11.82
2018-07-22T14:18:50.932Z,13.00
2018-07-22T14:21:24.792Z,11.10
2018-07-22T14:23:58.422Z,15.60
2018-07-22T14:26:33.027Z,11.90
2018-07-22T14:29:06.641Z,12.68
2018-07-22T14:31:41.225Z,11.35
2018-07-22T14:34:15.696Z,13.43
2018-07-22T14:36:50.356Z,14.75
2018-07-22T14:39:24.359Z,13.45
2018-07-22T14:41:58.088Z,13.68
2018-07-22T14:44:31.820Z,13.45
2018-07-22T14:47:05.667Z,16.85
2018-07-22T14:49:40.112Z,14.98
2018-07-22T14:52:13.889Z,16.65
2018-07-22T14:54:47.544Z,16.65
2018-07-22T14:57:21.340Z,18.37
2018-07-22T14:59:55.942Z,18.67
2018-07-22T15:02:29.718Z,18.15
2018-07-22T15:05:03.615Z,20.88
2018-07-22T15:07:37.360Z,17.33
2018-07-22T15:10:10.941Z,16.52
2018-07-22T15:12:44.812Z,15.20
2018-07-22T15:15:19.351Z,18.77
2018-07-22T15:17:53.771Z,15.10
2018-07-22T15:20:28.332Z,18.12
2018-07-22T15:23:02.962Z,20.92
2018-07-22T15:25:36.811Z,23.83
2018-07-22T15:28:10.498Z,24.55
2018-07-22T15:30:44.180Z,22.08
2018-07-22T15:33:18.100Z,14.68
2018-07-22T15:35:52.682Z,15.60
2018-07-22T15:38:26.587Z,15.55
2018-07-22T15:41:01.237Z,16.33
2018-07-22T15:43:35.086Z,16.42
2018-07-22T15:46:09.679Z,16.87
2018-07-22T15:48:44.248Z,20.52
2018-07-22T15:51:18.148Z,20.30
2018-07-22T15:53:51.952Z,18.62
2018-07-22T15:56:26.637Z,20.85
2018-07-22T15:59:00.400Z,22.90
2018-07-22T16:01:35.114Z,21.90
2018-07-22T16:04:08.830Z,24.23
2018-07-22T16:06:43.396Z,21.75
2018-07-22T16:09:17.256Z,24.75
2018-07-22T16:11:50.887Z,19.73
2018-07-22T16:14:24.638Z,21.40
2018-07-22T16:16:58.484Z,20.88
2018-07-22T16:19:32.220Z,19.58
2018-07-22T16:22:06.000Z,22.40
2018-07-22T16:24:39.750Z,22.50
2018-07-22T16:27:13.627Z,19.23
2018-07-22T16:29:47.508Z,19.05
2018-07-22T16:32:21.360Z,17.27
2018-07-22T16:34:55.012Z,17.55
2018-07-22T16:37:29.571Z,17.23
2018-07-22T16:40:03.233Z,16.58
2018-07-22T16:42:37.616Z,16.73
2018-07-22T16:45:12.195Z,19.00
2018-07-22T16:47:46.036Z,17.92
2018-07-22T16:50:20.537Z,18.75
2018-07-22T16:52:54.415Z,17.17
2018-07-22T16:55:28.078Z,16.83
2018-07-22T16:58:01.859Z,17.20
2018-07-22T17:00:36.317Z,19.08
2018-07-22T17:03:10.125Z,16.25
2018-07-22T17:05:44.896Z,18.17
2018-07-22T17:08:18.756Z,14.45
2018-07-22T17:10:53.150Z,18.42
2018-07-22T17:13:26.985Z,18.62
2018-07-22T17:16:01.588Z,18.40
2018-07-22T17:18:35.391Z,18.87
2018-07-22T17:21:09.077Z,16.48
2018-07-22T17:23:42.855Z,18.33
2018-07-22T17:26:16.782Z,19.85
2018-07-22T17:28:50.661Z,22.10
2018-07-22T17:31:24.410Z,20.10
2018-07-22T17:33:58.952Z,19.83
2018-07-22T17:36:32.799Z,21.65
2018-07-22T17:39:06.628Z,21.42
2018-07-22T17:41:40.414Z,25.17
2018-07-22T17:44:14.207Z,23.25
2018-07-22T17:46:48.011Z,21.98
2018-07-22T17:49:21.616Z,22.70
2018-07-22T17:51:55.298Z,20.62
2018-07-22T17:54:29.084Z,20.83
2018-07-22T17:57:02.812Z,22.00
2018-07-22T17:59:36.550Z,21.65
2018-07-22T18:02:11.122Z,22.77
2018-07-22T18:04:45.772Z,21.00
2018-07-22T18:07:20.386Z,21.17
2018-07-22T18:09:54.343Z,19.58
2018-07-22T18:12:27.979Z,20.33
2018-07-22T18:15:01.705Z,21.85
2018-07-22T18:17:36.179Z,19.98
2018-07-22T18:20:10.125Z,19.92
2018-07-22T18:22:44.522Z,21.02
2018-07-22T18:25:18.347Z,20.77
2018-07-22T18:27:52.140Z,22.45
2018-07-22T18:30:25.918Z,22.77
2018-07-22T18:32:59.544Z,21.17
2018-07-22T18:35:34.094Z,21.02
2018-07-22T18:38:08.006Z,21.40
2018-07-22T18:40:41.744Z,21.02
2018-07-22T18:43:16.311Z,21.02
2018-07-22T18:45:50.138Z,19.00
2018-07-22T18:48:24.207Z,20.12
2018-07-22T18:50:58.070Z,21.10
2018-07-22T18:53:32.484Z,20.23
2018-07-22T18:56:06.263Z,18.08
2018-07-22T18:58:40.167Z,20.00
2018-07-22T19:01:14.093Z,17.33
2018-07-22T19:03:47.898Z,18.52
2018-07-22T19:06:22.409Z,19.87
2018-07-22T19:08:56.374Z,18.27
2018-07-22T19:11:29.996Z,20.17
2018-07-22T19:14:03.707Z,17.62
2018-07-22T19:16:37.383Z,16.95
2018-07-22T19:19:11.187Z,16.73
2018-07-22T19:21:44.984Z,19.62
2018-07-22T19:24:18.676Z,20.50
2018-07-22T19:26:52.695Z,19.50
2018-07-22T19:29:27.295Z,18.55
2018-07-22T19:32:01.197Z,21.20
2018-07-22T19:34:34.876Z,19.20
2018-07-22T19:37:08.652Z,18.87
2018-07-22T19:39:42.987Z,18.48
2018-07-22T19:42:17.708Z,18.10
2018-07-22T19:44:51.507Z,18.90
2018-07-22T19:47:25.991Z,17.52
2018-07-22T19:49:59.787Z,17.92
2018-07-22T19:52:33.603Z,17.87
2018-07-22T19:55:07.344Z,17.75
2018-07-22T19:57:41.109Z,19.95
2018-07-22T20:00:14.812Z,22.27
2018-07-22T20:02:48.592Z,20.40
2018-07-22T20:05:23.243Z,20.02
2018-07-22T20:07:56.996Z,20.00
2018-07-22T20:10:31.341Z,29.12
2018-07-22T20:13:05.160Z,23.85
2018-07-22T20:15:39.665Z,26.85
2018-07-22T20:18:13.563Z,21.80
2018-07-22T20:20:47.211Z,24.95
2018-07-22T20:23:21.052Z,26.90
2018-07-22T20:25:55.631Z,25.35
2018-07-22T20:28:29.484Z,23.58
2018-07-22T20:31:03.326Z,23.42
2018-07-22T20:33:37.077Z,23.30
2018-07-22T20:36:11.587Z,22.65
2018-07-22T20:38:45.221Z,22.58
2018-07-22T20:41:19.881Z,23.85
2018-07-22T20:43:53.654Z,22.80
2018-07-22T20:46:27.518Z,26.42
2018-07-22T20:49:01.456Z,25.17
2018-07-22T20:51:36.045Z,26.05
2018-07-22T20:54:09.872Z,24.92
2018-07-22T20:56:43.766Z,24.77
2018-07-22T20:59:17.487Z,24.17
2018-07-22T21:01:51.315Z,23.08
2018-07-22T21:04:25.089Z,25.73
2018-07-22T21:06:58.861Z,24.58
2018-07-22T21:09:32.773Z,24.60
2018-07-22T21:15:05.109Z,27.48
2018-07-22T21:17:38.838Z,24.90
2018-07-22T21:20:13.434Z,23.70
2018-07-22T21:22:47.196Z,23.67
2018-07-22T21:25:21.728Z,25.05
2018-07-22T21:27:56.268Z,24.85
2018-07-22T21:30:29.908Z,25.20
2018-07-22T21:33:03.766Z,25.00
2018-07-22T21:35:37.531Z,25.83
2018-07-22T21:38:11.211Z,25.27
2018-07-22T21:40:45.057Z,24.42
2018-07-22T21:43:19.584Z,26.70
2018-07-22T21:45:53.483Z,26.00
2018-07-22T21:48:27.241Z,27.48
2018-07-22T21:51:00.940Z,27.73
2018-07-22T21:53:34.753Z,25.92
2018-07-22T21:56:08.527Z,28.40
2018-07-22T21:58:42.442Z,27.98
2018-07-22T22:01:17.363Z,25.80
2018-07-22T22:03:51.077Z,27.27
2018-07-22T22:06:24.916Z,28.80
2018-07-22T22:08:58.710Z,30.33
2018-07-22T22:11:32.480Z,29.17
2018-07-22T22:14:06.370Z,27.37
2018-07-22T22:16:40.056Z,31.55
2018-07-22T22:19:13.876Z,31.15
2018-07-22T22:21:47.676Z,32.95
2018-07-22T22:24:21.476Z,32.53
2018-07-22T22:26:55.253Z,32.50
2018-07-22T22:29:29.009Z,30.75
2018-07-22T22:32:02.873Z,30.00
2018-07-22T22:34:36.645Z,30.58
2018-07-22T22:37:10.501Z,30.45
2018-07-22T22:39:44.277Z,28.17
2018-07-22T22:42:18.076Z,29.30
2018-07-22T22:44:52.604Z,28.30
2018-07-22T22:47:26.383Z,30.77
2018-07-22T22:50:00.236Z,31.37
2018-07-22T22:52:34.816Z,31.87
2018-07-22T22:55:08.481Z,26.95
2018-07-22T22:57:42.328Z,27.35
2018-07-22T23:00:16.144Z,29.10
2018-07-22T23:02:49.991Z,28.70
2018-07-22T23:05:23.785Z,28.20
2018-07-22T23:07:57.647Z,30.12
2018-07-22T23:10:31.522Z,28.12
2018-07-22T23:13:05.372Z,27.98
2018-07-22T23:15:39.151Z,27.45
2018-07-22T23:18:12.908Z,29.80
2018-07-22T23:20:46.710Z,28.98
2018-07-22T23:23:21.341Z,29.40
2018-07-22T23:25:55.177Z,30.67
2018-07-22T23:28:28.828Z,30.55
2018-07-22T23:31:03.363Z,30.12
2018-07-22T23:33:37.095Z,30.73
2018-07-22T23:36:10.980Z,32.95
2018-07-22T23:38:44.816Z,32.83
2018-07-22T23:41:18.581Z,32.92
2018-07-22T23:43:52.438Z,32.83
2018-07-22T23:46:26.228Z,32.83
2018-07-22T23:49:00.054Z,33.67
2018-07-22T23:51:34.705Z,34.03
2018-07-22T23:54:08.564Z,35.72
2018-07-22T23:56:42.380Z,34.78
2018-07-22T23:59:16.198Z,33.03
